Airfield :







YOU CAN JOIN US ON...

 
LOGIN :

Register | Disclaimer

   EN    FR    IT 

 









Legend :    VFR   Marginal VFR   IFR   Intensive IFR   Very Intensive IFR
Visi :
Ceiling :
>= 8 km
>= 3000ft
5 to 8 km
1000 to 3000 ft
1500m to 5 km
500 to 1000 ft
800 to 1500m
200 to 500 ft
< 800m
< 200 ft
Symbols :   Thunderstorms  Fog  Heavy snow  Heavy precipitations  Wind > 20 kt






- Airport Elevation : 29 ft
- IATA code : CUR


TNCC - Willemstad/Hato Int.

CURRENT METAR :
  • 161100Z 11009KT 9999 FEW018TCU SCT021 27/23 Q1013 TEMPO 09015G26KT 5000 SHRA BKN014TCU

EXPIRED METARs :
  • 161000Z 12013KT 9999 SCT019 27/23 Q1012 TEMPO 09015G26KT 5000 SHRA BKN014TCU
  • 160900Z 10014KT 9999 SCT018 28/23 Q1012 TEMPO 09015G26KT 5000 SHRA BKN014TCU

TAF TAF TNCC
Valid from the 16 at 06:00 until the 17 at 06:00 UTC


160515Z 1606/1706 10013KT 9999 SCT018
PROB30
TEMPO 1608/1619 09015G25KT 6000 SHRA BKN014



MET'MAP, your aeronautical weather chart ! - Copyright ORBIFLY December 2007 - Disclaimer

ORBIFLY MET'MAP TEAM :

Programming & Development : Alexandra Zaïnal
Concept & original design : Baudouin d'Aumeries
Assistance for programming : Marc-Olivier Méhu
Technical & hardware support : Manuel Goepfert

Contact : metmap@orbifly.com




SOURCES & CREDITS :

   NOAA